Beaver Dam, WI

4:52 AM CST on February 09, 2016 (GMT -0600)
Georgetown Heights | | Change Station
CLOSE
Current Station
Personal Weather Station
Location: Beaver Dam, WI
Elevation: 902 ft
Nearby Weather Stations

Elev 902 ft 43.46 °N, 88.81 °W | Updated 6 minutes ago

Snow
Snow
10.8 °F
Feels Like 1 °F
N
5.8
Wind Variable Wind from West

Today
High -- | Low -- °F
--% Chance of Precip.
Yesterday
High -- | Low -- °F
Precip. -- in
Pressure 29.78 in
Visibility 5.0 miles
Clouds Mostly Cloudy 2600 ft
Windchill 1 °F
Dew Point 7 °F
Humidity 84%
Rainfall 0.00 in
Snow Depth Not available.
7:02 AM 5:17 PM
New Moon, 1% visible
METAR KUNU 091035Z AUTO 31011G16KT 5SM -SN BKN026 M12/M14 A2978 RMK AO2 T11181145
Pressure 29.78 in
Visibility 5.0 miles
Clouds Mostly Cloudy 2600 ft
Windchill 1 °F
Dew Point 7 °F
Humidity 84%
Rainfall 0.00 in
Snow Depth Not available.
7:02 AM 5:17 PM
New Moon, 1% visible
METAR KUNU 091035Z AUTO 31011G16KT 5SM -SN BKN026 M12/M14 A2978 RMK AO2 T11181145

10-Day Weather Forecast

Almanac

Astronomy

Feb. 09, 2016 Rise Set
Actual Time
Civil Twilight
Nautical Twilight
Astronomical Twilight
Moon
Length of Visible Light
Length of Day
Tomorrow will be .
, % of the Moon is Illuminated

Today's Extremes

State Highs State Lows

Community

WunderPhotos

Upload Photos

1,891,565 photos uploaded!

WunderBlog® & News

Nearby

Air Quality

  Air Quality AQ Index Pollutant
Not available.

Snow Depth

Station Depth Elevation

Earthquake Activity

City Distance Mag. Time & Date
Minimum magnitude displayed is 2.5.

Coastal Water Temperatures

Place Temperature

Stations

Nearby Weather Stations

Station Location Temp. Windchill Dew Point Humidity Wind Precip. Elev Updated Type
                   

Watches & Warnings

There are currently no watches in effect.